Аэропорт: Гумрак. Волгоград

ICAO: URWW

METAR:
2020-06-04 03:30:00
URWW 040330Z 27004MPS CAVOK 16/14 Q1009 R24/010070 TEMPO 1000 BR BKN003
METAR:
2020-06-04 01:59:00
TAF URWW 040159Z 0403/0412 27005G11MPS 9999 BKN016 SCT020CB TEMPO 0403/0406 25003G10MPS 3100 BR BKN004 BKN020CB PROB40 TEMPO 0403/0406 -TSRAGR TEMPO 0406/0412 25006G12MPS